sensor_id;sensor_type;location;lat;lon;timestamp;pressure;altitude;pressure_sealevel;temperature;humidity
62031;BME280;62035;52.094;5.112;2022-09-17T00:01:28;101435.44;;;13.41;100.00
62031;BME280;62035;52.094;5.112;2022-09-17T00:03:57;101437.03;;;13.33;100.00
62031;BME280;62035;52.094;5.112;2022-09-17T00:06:33;101439.69;;;13.33;100.00
62031;BME280;62035;52.094;5.112;2022-09-17T00:09:02;101429.13;;;13.14;100.00
62031;BME280;62035;52.094;5.112;2022-09-17T00:11:33;101443.72;;;13.20;100.00
62031;BME280;62035;52.094;5.112;2022-09-17T00:14:04;101453.25;;;13.05;100.00
62031;BME280;62035;52.094;5.112;2022-09-17T00:16:36;101449.03;;;13.02;100.00
62031;BME280;62035;52.094;5.112;2022-09-17T00:19:11;101446.66;;;12.99;100.00
62031;BME280;62035;52.094;5.112;2022-09-17T00:21:41;101461.03;;;12.98;100.00
62031;BME280;62035;52.094;5.112;2022-09-17T00:24:11;101459.59;;;13.03;100.00
62031;BME280;62035;52.094;5.112;2022-09-17T00:26:40;101465.75;;;13.04;100.00
62031;BME280;62035;52.094;5.112;2022-09-17T00:29:10;101473.25;;;13.00;100.00
62031;BME280;62035;52.094;5.112;2022-09-17T00:31:38;101474.31;;;13.08;100.00
62031;BME280;62035;52.094;5.112;2022-09-17T00:34:06;101468.13;;;13.07;100.00
62031;BME280;62035;52.094;5.112;2022-09-17T00:36:35;101465.75;;;13.04;100.00
62031;BME280;62035;52.094;5.112;2022-09-17T00:39:06;101466.13;;;12.91;100.00
62031;BME280;62035;52.094;5.112;2022-09-17T00:41:37;101466.13;;;12.91;100.00
62031;BME280;62035;52.094;5.112;2022-09-17T00:44:45;101473.97;;;12.93;100.00
62031;BME280;62035;52.094;5.112;2022-09-17T00:47:21;101470.75;;;12.89;100.00
62031;BME280;62035;52.094;5.112;2022-09-17T00:49:54;101461.47;;;12.93;100.00
62031;BME280;62035;52.094;5.112;2022-09-17T00:52:27;101465.91;;;13.02;100.00
62031;BME280;62035;52.094;5.112;2022-09-17T00:55:05;101455.47;;;13.09;100.00
62031;BME280;62035;52.094;5.112;2022-09-17T00:57:51;101461.03;;;12.98;100.00
62031;BME280;62035;52.094;5.112;2022-09-17T01:00:24;101462.59;;;12.91;100.00
62031;BME280;62035;52.094;5.112;2022-09-17T01:02:53;101469.44;;;13.03;100.00
62031;BME280;62035;52.094;5.112;2022-09-17T01:05:30;101451.91;;;12.91;100.00
62031;BME280;62035;52.094;5.112;2022-09-17T01:08:08;101460.44;;;13.04;100.00
62031;BME280;62035;52.094;5.112;2022-09-17T01:11:11;101461.03;;;12.98;100.00
62031;BME280;62035;52.094;5.112;2022-09-17T01:14:02;101467.66;;;12.94;100.00
62031;BME280;62035;52.094;5.112;2022-09-17T01:16:47;101474.66;;;12.95;100.00
62031;BME280;62035;52.094;5.112;2022-09-17T01:19:40;101473.53;;;12.97;100.00
62031;BME280;62035;52.094;5.112;2022-09-17T01:22:46;101485.22;;;12.96;100.00
62031;BME280;62035;52.094;5.112;2022-09-17T01:25:30;101485.06;;;12.98;100.00
62031;BME280;62035;52.094;5.112;2022-09-17T01:28:31;101483.72;;;13.12;100.00
62031;BME280;62035;52.094;5.112;2022-09-17T01:31:15;101484.59;;;13.30;100.00
62031;BME280;62035;52.094;5.112;2022-09-17T01:33:55;101488.94;;;13.13;100.00
62031;BME280;62035;52.094;5.112;2022-09-17T01:36:45;101490.34;;;13.08;100.00
62031;BME280;62035;52.094;5.112;2022-09-17T01:39:31;101482.09;;;13.28;100.00
62031;BME280;62035;52.094;5.112;2022-09-17T01:42:15;101489.50;;;13.17;100.00
62031;BME280;62035;52.094;5.112;2022-09-17T01:44:54;101492.03;;;13.09;100.00
62031;BME280;62035;52.094;5.112;2022-09-17T01:47:36;101477.81;;;12.81;100.00
62031;BME280;62035;52.094;5.112;2022-09-17T01:50:08;101493.56;;;12.84;100.00
62031;BME280;62035;52.094;5.112;2022-09-17T01:52:40;101501.00;;;12.90;100.00
62031;BME280;62035;52.094;5.112;2022-09-17T01:55:14;101499.25;;;12.98;100.00
62031;BME280;62035;52.094;5.112;2022-09-17T01:57:47;101487.34;;;12.93;100.00
62031;BME280;62035;52.094;5.112;2022-09-17T02:00:21;101489.13;;;13.02;100.00
62031;BME280;62035;52.094;5.112;2022-09-17T02:02:59;101497.72;;;12.96;100.00
62031;BME280;62035;52.094;5.112;2022-09-17T02:05:34;101497.53;;;13.07;100.00
62031;BME280;62035;52.094;5.112;2022-09-17T02:08:09;101486.94;;;13.15;100.00
62031;BME280;62035;52.094;5.112;2022-09-17T02:10:44;101504.53;;;13.18;100.00
62031;BME280;62035;52.094;5.112;2022-09-17T02:13:20;101487.03;;;13.23;100.00
62031;BME280;62035;52.094;5.112;2022-09-17T02:15:55;101486.34;;;13.21;100.00
62031;BME280;62035;52.094;5.112;2022-09-17T02:18:30;101489.03;;;13.21;100.00
62031;BME280;62035;52.094;5.112;2022-09-17T02:21:07;101489.25;;;13.28;100.00
62031;BME280;62035;52.094;5.112;2022-09-17T02:23:48;101492.69;;;13.20;100.00
62031;BME280;62035;52.094;5.112;2022-09-17T02:26:23;101488.66;;;13.16;100.00
62031;BME280;62035;52.094;5.112;2022-09-17T02:28:57;101490.94;;;13.29;100.00
62031;BME280;62035;52.094;5.112;2022-09-17T02:31:28;101500.34;;;13.33;100.00
62031;BME280;62035;52.094;5.112;2022-09-17T02:34:00;101513.22;;;13.20;100.00
62031;BME280;62035;52.094;5.112;2022-09-17T02:36:30;101514.47;;;13.25;100.00
62031;BME280;62035;52.094;5.112;2022-09-17T02:39:02;101515.25;;;13.08;100.00
62031;BME280;62035;52.094;5.112;2022-09-17T02:41:40;101519.56;;;12.82;100.00
62031;BME280;62035;52.094;5.112;2022-09-17T02:44:21;101502.97;;;12.51;100.00
62031;BME280;62035;52.094;5.112;2022-09-17T02:47:33;101499.19;;;12.53;100.00
62031;BME280;62035;52.094;5.112;2022-09-17T02:50:25;101507.06;;;12.45;100.00
62031;BME280;62035;52.094;5.112;2022-09-17T02:53:06;101488.88;;;12.31;100.00
62031;BME280;62035;52.094;5.112;2022-09-17T02:55:53;101482.13;;;12.37;100.00
62031;BME280;62035;52.094;5.112;2022-09-17T02:58:31;101507.84;;;12.65;100.00
62031;BME280;62035;52.094;5.112;2022-09-17T03:01:11;101526.59;;;12.83;100.00
62031;BME280;62035;52.094;5.112;2022-09-17T03:03:46;101547.19;;;12.73;100.00
62031;BME280;62035;52.094;5.112;2022-09-17T03:06:17;101544.13;;;12.58;100.00
62031;BME280;62035;52.094;5.112;2022-09-17T03:08:45;101529.41;;;12.44;100.00
62031;BME280;62035;52.094;5.112;2022-09-17T03:11:13;101514.72;;;12.30;100.00
62031;BME280;62035;52.094;5.112;2022-09-17T03:13:41;101518.09;;;12.13;100.00
62031;BME280;62035;52.094;5.112;2022-09-17T03:16:09;101511.66;;;12.06;100.00
62031;BME280;62035;52.094;5.112;2022-09-17T03:18:36;101519.66;;;12.06;100.00
62031;BME280;62035;52.094;5.112;2022-09-17T03:21:04;101514.31;;;12.06;100.00
62031;BME280;62035;52.094;5.112;2022-09-17T03:23:33;101511.22;;;12.11;100.00
62031;BME280;62035;52.094;5.112;2022-09-17T03:26:00;101512.06;;;12.11;100.00
62031;BME280;62035;52.094;5.112;2022-09-17T03:28:28;101493.41;;;12.01;100.00
62031;BME280;62035;52.094;5.112;2022-09-17T03:30:55;101507.00;;;12.08;100.00
62031;BME280;62035;52.094;5.112;2022-09-17T03:33:23;101504.78;;;12.13;100.00
62031;BME280;62035;52.094;5.112;2022-09-17T03:35:51;101504.47;;;12.16;100.00
62031;BME280;62035;52.094;5.112;2022-09-17T03:38:18;101506.88;;;12.10;100.00
62031;BME280;62035;52.094;5.112;2022-09-17T03:40:57;101511.66;;;12.16;100.00
62031;BME280;62035;52.094;5.112;2022-09-17T03:43:25;101509.13;;;12.05;100.00
62031;BME280;62035;52.094;5.112;2022-09-17T03:45:53;101515.72;;;12.10;100.00
62031;BME280;62035;52.094;5.112;2022-09-17T03:48:21;101510.94;;;12.04;100.00
62031;BME280;62035;52.094;5.112;2022-09-17T03:50:49;101506.75;;;12.01;100.00
62031;BME280;62035;52.094;5.112;2022-09-17T03:53:17;101528.66;;;12.05;100.00
62031;BME280;62035;52.094;5.112;2022-09-17T03:55:45;101534.81;;;12.06;100.00
62031;BME280;62035;52.094;5.112;2022-09-17T03:58:14;101549.44;;;12.11;100.00
62031;BME280;62035;52.094;5.112;2022-09-17T04:00:41;101549.97;;;12.05;100.00
62031;BME280;62035;52.094;5.112;2022-09-17T04:03:09;101535.28;;;11.91;100.00
62031;BME280;62035;52.094;5.112;2022-09-17T04:05:37;101525.88;;;11.97;100.00
62031;BME280;62035;52.094;5.112;2022-09-17T04:08:04;101530.09;;;11.90;100.00
62031;BME280;62035;52.094;5.112;2022-09-17T04:10:32;101539.34;;;11.95;100.00
62031;BME280;62035;52.094;5.112;2022-09-17T04:12:59;101532.47;;;11.93;100.00
62031;BME280;62035;52.094;5.112;2022-09-17T04:15:28;101531.19;;;11.87;100.00
62031;BME280;62035;52.094;5.112;2022-09-17T04:17:56;101540.03;;;11.78;100.00
62031;BME280;62035;52.094;5.112;2022-09-17T04:20:25;101533.69;;;11.69;100.00
62031;BME280;62035;52.094;5.112;2022-09-17T04:22:53;101536.22;;;11.71;100.00
62031;BME280;62035;52.094;5.112;2022-09-17T04:25:21;101533.03;;;11.87;100.00
62031;BME280;62035;52.094;5.112;2022-09-17T04:27:48;101514.88;;;11.61;100.00
62031;BME280;62035;52.094;5.112;2022-09-17T04:30:17;101530.59;;;11.74;100.00
62031;BME280;62035;52.094;5.112;2022-09-17T04:32:46;101535.56;;;11.88;100.00
62031;BME280;62035;52.094;5.112;2022-09-17T04:35:13;101532.88;;;11.88;100.00
62031;BME280;62035;52.094;5.112;2022-09-17T04:37:41;101541.88;;;11.87;100.00
62031;BME280;62035;52.094;5.112;2022-09-17T04:40:09;101537.66;;;11.94;100.00
62031;BME280;62035;52.094;5.112;2022-09-17T04:42:37;101540.59;;;11.82;100.00
62031;BME280;62035;52.094;5.112;2022-09-17T04:45:05;101532.31;;;11.85;100.00
62031;BME280;62035;52.094;5.112;2022-09-17T04:47:33;101529.50;;;11.86;100.00
62031;BME280;62035;52.094;5.112;2022-09-17T04:50:06;101537.09;;;11.81;100.00
62031;BME280;62035;52.094;5.112;2022-09-17T04:52:34;101541.59;;;11.90;100.00
62031;BME280;62035;52.094;5.112;2022-09-17T04:55:02;101528.25;;;11.90;100.00
62031;BME280;62035;52.094;5.112;2022-09-17T04:57:30;101535.69;;;11.87;100.00
62031;BME280;62035;52.094;5.112;2022-09-17T04:59:58;101542.84;;;11.86;100.00
62031;BME280;62035;52.094;5.112;2022-09-17T05:02:26;101536.53;;;11.87;100.00
62031;BME280;62035;52.094;5.112;2022-09-17T05:04:53;101539.75;;;12.00;100.00
62031;BME280;62035;52.094;5.112;2022-09-17T05:07:23;101538.47;;;12.14;100.00
62031;BME280;62035;52.094;5.112;2022-09-17T05:09:50;101546.47;;;12.14;100.00
62031;BME280;62035;52.094;5.112;2022-09-17T05:12:18;101548.88;;;12.08;100.00
62031;BME280;62035;52.094;5.112;2022-09-17T05:14:46;101541.41;;;12.01;100.00
62031;BME280;62035;52.094;5.112;2022-09-17T05:17:13;101552.09;;;12.01;100.00
62031;BME280;62035;52.094;5.112;2022-09-17T05:19:41;101545.38;;;11.88;100.00
62031;BME280;62035;52.094;5.112;2022-09-17T05:22:08;101561.53;;;11.96;100.00
62031;BME280;62035;52.094;5.112;2022-09-17T05:24:37;101566.88;;;11.96;100.00
62031;BME280;62035;52.094;5.112;2022-09-17T05:27:05;101564.06;;;11.88;100.00
62031;BME280;62035;52.094;5.112;2022-09-17T05:29:33;101580.03;;;11.78;100.00
62031;BME280;62035;52.094;5.112;2022-09-17T05:32:02;101574.94;;;11.65;100.00
62031;BME280;62035;52.094;5.112;2022-09-17T05:34:30;101567.75;;;11.47;100.00
62031;BME280;62035;52.094;5.112;2022-09-17T05:36:57;101581.38;;;11.63;100.00
62031;BME280;62035;52.094;5.112;2022-09-17T05:39:25;101572.13;;;11.57;100.00
62031;BME280;62035;52.094;5.112;2022-09-17T05:41:55;101556.56;;;11.53;100.00
62031;BME280;62035;52.094;5.112;2022-09-17T05:44:22;101550.09;;;11.65;100.00
62031;BME280;62035;52.094;5.112;2022-09-17T05:46:51;101565.38;;;11.63;100.00
62031;BME280;62035;52.094;5.112;2022-09-17T05:49:19;101563.69;;;11.62;100.00
62031;BME280;62035;52.094;5.112;2022-09-17T05:51:49;101562.47;;;11.76;100.00
62031;BME280;62035;52.094;5.112;2022-09-17T05:54:17;101566.03;;;11.95;100.00
62031;BME280;62035;52.094;5.112;2022-09-17T05:56:44;101568.13;;;11.92;100.00
62031;BME280;62035;52.094;5.112;2022-09-17T05:59:13;101570.63;;;12.13;100.00
62031;BME280;62035;52.094;5.112;2022-09-17T06:01:41;101566.97;;;12.14;100.00
62031;BME280;62035;52.094;5.112;2022-09-17T06:04:09;101549.44;;;11.92;100.00
62031;BME280;62035;52.094;5.112;2022-09-17T06:06:36;101564.75;;;11.90;100.00
62031;BME280;62035;52.094;5.112;2022-09-17T06:09:06;101570.34;;;12.06;100.00
62031;BME280;62035;52.094;5.112;2022-09-17T06:11:36;101567.25;;;12.01;100.00
62031;BME280;62035;52.094;5.112;2022-09-17T06:14:04;101576.66;;;12.05;100.00
62031;BME280;62035;52.094;5.112;2022-09-17T06:16:33;101561.38;;;12.07;100.00
62031;BME280;62035;52.094;5.112;2022-09-17T06:19:00;101576.09;;;12.11;100.00
62031;BME280;62035;52.094;5.112;2022-09-17T06:21:29;101567.69;;;12.06;100.00
62031;BME280;62035;52.094;5.112;2022-09-17T06:23:56;101577.38;;;12.17;100.00
62031;BME280;62035;52.094;5.112;2022-09-17T06:26:24;101585.94;;;12.20;100.00
62031;BME280;62035;52.094;5.112;2022-09-17T06:28:52;101593.66;;;12.14;100.00
62031;BME280;62035;52.094;5.112;2022-09-17T06:31:19;101593.66;;;12.33;100.00
62031;BME280;62035;52.094;5.112;2022-09-17T06:33:48;101588.41;;;12.51;100.00
62031;BME280;62035;52.094;5.112;2022-09-17T06:36:16;101587.28;;;12.53;100.00
62031;BME280;62035;52.094;5.112;2022-09-17T06:38:44;101592.63;;;12.53;100.00
62031;BME280;62035;52.094;5.112;2022-09-17T06:41:11;101595.03;;;12.47;100.00
62031;BME280;62035;52.094;5.112;2022-09-17T06:43:41;101589.25;;;12.51;100.00
62031;BME280;62035;52.094;5.112;2022-09-17T06:46:10;101583.50;;;12.56;100.00
62031;BME280;62035;52.094;5.112;2022-09-17T06:48:38;101595.00;;;12.66;100.00
62031;BME280;62035;52.094;5.112;2022-09-17T06:51:08;101597.38;;;12.79;100.00
62031;BME280;62035;52.094;5.112;2022-09-17T06:53:37;101588.19;;;12.81;100.00
62031;BME280;62035;52.094;5.112;2022-09-17T06:56:06;101584.16;;;12.77;100.00
62031;BME280;62035;52.094;5.112;2022-09-17T06:58:35;101589.09;;;13.09;100.00
62031;BME280;62035;52.094;5.112;2022-09-17T07:01:15;101591.38;;;13.31;100.00
62031;BME280;62035;52.094;5.112;2022-09-17T07:03:43;101598.38;;;13.60;100.00
62031;BME280;62035;52.094;5.112;2022-09-17T07:06:11;101601.75;;;13.62;100.00
62031;BME280;62035;52.094;5.112;2022-09-17T07:08:38;101606.50;;;13.68;100.00
62031;BME280;62035;52.094;5.112;2022-09-17T07:11:06;101599.56;;;13.57;100.00
62031;BME280;62035;52.094;5.112;2022-09-17T07:13:34;101609.72;;;13.54;100.00
62031;BME280;62035;52.094;5.112;2022-09-17T07:16:03;101601.38;;;13.29;100.00
62031;BME280;62035;52.094;5.112;2022-09-17T07:18:33;101596.03;;;13.29;100.00
62031;BME280;62035;52.094;5.112;2022-09-17T07:21:04;101594.75;;;13.33;100.00
62031;BME280;62035;52.094;5.112;2022-09-17T07:23:34;101601.97;;;13.23;100.00
62031;BME280;62035;52.094;5.112;2022-09-17T07:26:05;101596.13;;;13.38;100.00
62031;BME280;62035;52.094;5.112;2022-09-17T07:28:37;101603.28;;;13.64;100.00
62031;BME280;62035;52.094;5.112;2022-09-17T07:31:05;101595.81;;;14.03;100.00
62031;BME280;62035;52.094;5.112;2022-09-17T07:33:36;101589.63;;;14.39;100.00
62031;BME280;62035;52.094;5.112;2022-09-17T07:36:05;101586.78;;;14.22;100.00
62031;BME280;62035;52.094;5.112;2022-09-17T07:38:35;101574.06;;;13.98;100.00
62031;BME280;62035;52.094;5.112;2022-09-17T07:41:05;101575.19;;;13.78;100.00
62031;BME280;62035;52.094;5.112;2022-09-17T07:43:34;101573.19;;;13.80;100.00
62031;BME280;62035;52.094;5.112;2022-09-17T07:46:04;101583.00;;;13.89;100.00
62031;BME280;62035;52.094;5.112;2022-09-17T07:48:34;101571.13;;;14.10;100.00
62031;BME280;62035;52.094;5.112;2022-09-17T07:51:02;101568.81;;;14.32;100.00
62031;BME280;62035;52.094;5.112;2022-09-17T07:53:29;101572.78;;;14.72;100.00
62031;BME280;62035;52.094;5.112;2022-09-17T07:55:58;101568.59;;;15.04;100.00
62031;BME280;62035;52.094;5.112;2022-09-17T07:58:28;101575.88;;;15.19;100.00
62031;BME280;62035;52.094;5.112;2022-09-17T08:00:59;101581.16;;;14.69;100.00
62031;BME280;62035;52.094;5.112;2022-09-17T08:03:28;101568.84;;;14.58;100.00
62031;BME280;62035;52.094;5.112;2022-09-17T08:06:02;101567.38;;;14.20;100.00
62031;BME280;62035;52.094;5.112;2022-09-17T08:08:30;101582.28;;;14.23;100.00
62031;BME280;62035;52.094;5.112;2022-09-17T08:10:59;101574.31;;;14.31;100.00
62031;BME280;62035;52.094;5.112;2022-09-17T08:13:28;101571.09;;;14.45;100.00
62031;BME280;62035;52.094;5.112;2022-09-17T08:15:59;101568.28;;;14.73;100.00
62031;BME280;62035;52.094;5.112;2022-09-17T08:18:28;101561.16;;;15.31;100.00
62031;BME280;62035;52.094;5.112;2022-09-17T08:20:56;101567.16;;;15.25;100.00
62031;BME280;62035;52.094;5.112;2022-09-17T08:23:26;101565.41;;;15.00;100.00
62031;BME280;62035;52.094;5.112;2022-09-17T08:25:55;101566.13;;;15.10;100.00
62031;BME280;62035;52.094;5.112;2022-09-17T08:28:27;101567.84;;;15.27;100.00
62031;BME280;62035;52.094;5.112;2022-09-17T08:30:59;101574.53;;;15.23;100.00
62031;BME280;62035;52.094;5.112;2022-09-17T08:33:29;101603.81;;;15.09;100.00
62031;BME280;62035;52.094;5.112;2022-09-17T08:35:57;101622.13;;;13.90;100.00
62031;BME280;62035;52.094;5.112;2022-09-17T08:38:27;101640.56;;;13.11;100.00
62031;BME280;62035;52.094;5.112;2022-09-17T08:41:05;101648.25;;;12.77;100.00
62031;BME280;62035;52.094;5.112;2022-09-17T08:43:49;101656.00;;;12.71;100.00
62031;BME280;62035;52.094;5.112;2022-09-17T08:46:25;101657.97;;;12.59;100.00
62031;BME280;62035;52.094;5.112;2022-09-17T08:49:06;101648.69;;;12.63;100.00
62031;BME280;62035;52.094;5.112;2022-09-17T08:51:54;101653.31;;;12.61;100.00
62031;BME280;62035;52.094;5.112;2022-09-17T08:54:53;101645.63;;;13.05;100.00
62031;BME280;62035;52.094;5.112;2022-09-17T08:57:35;101626.44;;;13.28;100.00
62031;BME280;62035;52.094;5.112;2022-09-17T09:00:10;101652.53;;;13.72;100.00
62031;BME280;62035;52.094;5.112;2022-09-17T09:02:52;101650.03;;;13.60;100.00
62031;BME280;62035;52.094;5.112;2022-09-17T09:05:42;101645.94;;;13.66;100.00
62031;BME280;62035;52.094;5.112;2022-09-17T09:08:17;101658.56;;;13.74;100.00
62031;BME280;62035;52.094;5.112;2022-09-17T09:10:52;101651.41;;;13.47;100.00
62031;BME280;62035;52.094;5.112;2022-09-17T09:13:25;101669.47;;;13.35;100.00
62031;BME280;62035;52.094;5.112;2022-09-17T09:15:58;101663.00;;;13.28;100.00
62031;BME280;62035;52.094;5.112;2022-09-17T09:18:29;101656.38;;;13.32;100.00
62031;BME280;62035;52.094;5.112;2022-09-17T09:21:06;101655.97;;;13.27;100.00
62031;BME280;62035;52.094;5.112;2022-09-17T09:23:51;101657.03;;;13.16;100.00
62031;BME280;62035;52.094;5.112;2022-09-17T09:26:34;101648.72;;;13.19;100.00
62031;BME280;62035;52.094;5.112;2022-09-17T09:29:14;101654.56;;;13.32;100.00
62031;BME280;62035;52.094;5.112;2022-09-17T09:32:09;101651.53;;;13.73;100.00
62031;BME280;62035;52.094;5.112;2022-09-17T09:34:48;101646.66;;;13.86;100.00
62031;BME280;62035;52.094;5.112;2022-09-17T09:37:20;101635.59;;;13.98;100.00
62031;BME280;62035;52.094;5.112;2022-09-17T09:39:54;101643.16;;;14.39;100.00
62031;BME280;62035;52.094;5.112;2022-09-17T09:42:29;101637.44;;;14.51;100.00
62031;BME280;62035;52.094;5.112;2022-09-17T09:45:01;101624.31;;;14.66;100.00
62031;BME280;62035;52.094;5.112;2022-09-17T09:47:48;101628.56;;;15.02;100.00
62031;BME280;62035;52.094;5.112;2022-09-17T09:50:34;101623.94;;;15.21;100.00
62031;BME280;62035;52.094;5.112;2022-09-17T09:53:21;101634.09;;;15.35;100.00
62031;BME280;62035;52.094;5.112;2022-09-17T09:56:05;101622.97;;;15.64;100.00
62031;BME280;62035;52.094;5.112;2022-09-17T09:58:49;101615.19;;;16.03;100.00
62031;BME280;62035;52.094;5.112;2022-09-17T10:01:18;101613.69;;;16.25;100.00
62031;BME280;62035;52.094;5.112;2022-09-17T10:03:48;101611.34;;;16.14;100.00
62031;BME280;62035;52.094;5.112;2022-09-17T10:06:19;101619.31;;;15.73;100.00
62031;BME280;62035;52.094;5.112;2022-09-17T10:09:09;101638.56;;;15.26;100.00
62031;BME280;62035;52.094;5.112;2022-09-17T10:11:39;101650.28;;;15.17;100.00
62031;BME280;62035;52.094;5.112;2022-09-17T10:14:21;101632.34;;;14.92;100.00
62031;BME280;62035;52.094;5.112;2022-09-17T10:17:09;101629.97;;;14.89;100.00
62031;BME280;62035;52.094;5.112;2022-09-17T10:19:46;101618.56;;;14.79;100.00
62031;BME280;62035;52.094;5.112;2022-09-17T10:22:40;101596.16;;;14.62;100.00
62031;BME280;62035;52.094;5.112;2022-09-17T10:25:23;101596.69;;;14.65;100.00
62031;BME280;62035;52.094;5.112;2022-09-17T10:27:55;101587.34;;;14.70;100.00
62031;BME280;62035;52.094;5.112;2022-09-17T10:30:26;101596.78;;;14.82;100.00
62031;BME280;62035;52.094;5.112;2022-09-17T10:33:17;101589.63;;;14.90;100.00
62031;BME280;62035;52.094;5.112;2022-09-17T10:35:59;101594.00;;;15.33;100.00
62031;BME280;62035;52.094;5.112;2022-09-17T10:38:32;101590.47;;;15.59;100.00
62031;BME280;62035;52.094;5.112;2022-09-17T10:41:08;101590.88;;;15.96;100.00
62031;BME280;62035;52.094;5.112;2022-09-17T10:43:38;101587.16;;;16.14;100.00
62031;BME280;62035;52.094;5.112;2022-09-17T10:46:11;101578.94;;;16.23;100.00
62031;BME280;62035;52.094;5.112;2022-09-17T10:48:45;101572.56;;;16.24;100.00
62031;BME280;62035;52.094;5.112;2022-09-17T10:51:22;101571.41;;;16.27;100.00
62031;BME280;62035;52.094;5.112;2022-09-17T10:54:15;101567.03;;;16.26;100.00
62031;BME280;62035;52.094;5.112;2022-09-17T10:57:10;101557.28;;;16.33;100.00
62031;BME280;62035;52.094;5.112;2022-09-17T10:59:53;101562.31;;;16.69;100.00
62031;BME280;62035;52.094;5.112;2022-09-17T11:06:04;101545.41;;;16.91;100.00
62031;BME280;62035;52.094;5.112;2022-09-17T11:08:48;101539.91;;;16.84;100.00
62031;BME280;62035;52.094;5.112;2022-09-17T11:11:33;101535.63;;;17.06;100.00
62031;BME280;62035;52.094;5.112;2022-09-17T11:14:18;101528.38;;;17.15;100.00
62031;BME280;62035;52.094;5.112;2022-09-17T11:17:11;101530.66;;;16.87;100.00
62031;BME280;62035;52.094;5.112;2022-09-17T11:19:58;101542.75;;;16.83;100.00
62031;BME280;62035;52.094;5.112;2022-09-17T11:22:35;101542.47;;;16.70;100.00
62031;BME280;62035;52.094;5.112;2022-09-17T11:25:23;101534.41;;;16.70;100.00
62031;BME280;62035;52.094;5.112;2022-09-17T11:28:17;101528.09;;;16.93;100.00
62031;BME280;62035;52.094;5.112;2022-09-17T11:31:07;101528.91;;;17.02;100.00
62031;BME280;62035;52.094;5.112;2022-09-17T11:34:07;101533.91;;;17.13;96.49
62031;BME280;62035;52.094;5.112;2022-09-17T11:36:57;101533.75;;;17.15;93.49
62031;BME280;62035;52.094;5.112;2022-09-17T11:39:35;101524.28;;;17.50;97.89
62031;BME280;62035;52.094;5.112;2022-09-17T11:42:13;101537.63;;;17.43;98.35
62031;BME280;62035;52.094;5.112;2022-09-17T11:44:48;101523.41;;;17.57;93.50
62031;BME280;62035;52.094;5.112;2022-09-17T11:47:27;101535.09;;;17.42;95.72
62031;BME280;62035;52.094;5.112;2022-09-17T11:50:02;101539.28;;;17.44;97.67
62031;BME280;62035;52.094;5.112;2022-09-17T11:52:44;101538.41;;;17.52;100.00
62031;BME280;62035;52.094;5.112;2022-09-17T11:55:29;101522.34;;;17.89;99.30
62031;BME280;62035;52.094;5.112;2022-09-17T11:58:10;101539.09;;;17.99;95.02
62031;BME280;62035;52.094;5.112;2022-09-17T12:00:49;101534.16;;;17.88;94.38
62031;BME280;62035;52.094;5.112;2022-09-17T12:03:26;101536.13;;;17.94;93.81
62031;BME280;62035;52.094;5.112;2022-09-17T12:06:02;101536.69;;;18.05;90.08
62031;BME280;62035;52.094;5.112;2022-09-17T12:08:41;101529.75;;;18.10;91.17
62031;BME280;62035;52.094;5.112;2022-09-17T12:11:17;101530.56;;;17.73;92.58
62031;BME280;62035;52.094;5.112;2022-09-17T12:13:49;101544.19;;;17.72;100.00
62031;BME280;62035;52.094;5.112;2022-09-17T12:16:23;101532.69;;;17.55;100.00
62031;BME280;62035;52.094;5.112;2022-09-17T12:18:58;101535.44;;;17.70;100.00
62031;BME280;62035;52.094;5.112;2022-09-17T12:21:36;101526.72;;;17.67;97.15
62031;BME280;62035;52.094;5.112;2022-09-17T12:24:14;101534.16;;;17.88;100.00
62031;BME280;62035;52.094;5.112;2022-09-17T12:26:56;101532.13;;;17.90;99.23
62031;BME280;62035;52.094;5.112;2022-09-17T12:29:37;101532.97;;;18.06;100.00
62031;BME280;62035;52.094;5.112;2022-09-17T12:32:38;101531.97;;;18.07;100.00
62031;BME280;62035;52.094;5.112;2022-09-17T12:35:36;101542.06;;;17.59;100.00
62031;BME280;62035;52.094;5.112;2022-09-17T12:38:42;101544.78;;;17.82;100.00
62031;BME280;62035;52.094;5.112;2022-09-17T12:41:20;101549.91;;;17.38;100.00
62031;BME280;62035;52.094;5.112;2022-09-17T12:44:13;101542.31;;;17.18;100.00
62031;BME280;62035;52.094;5.112;2022-09-17T12:47:15;101561.91;;;16.88;100.00
62031;BME280;62035;52.094;5.112;2022-09-17T12:50:08;101545.88;;;16.39;100.00
62031;BME280;62035;52.094;5.112;2022-09-17T12:52:57;101547.34;;;16.74;100.00
62031;BME280;62035;52.094;5.112;2022-09-17T12:55:42;101543.41;;;16.93;100.00
62031;BME280;62035;52.094;5.112;2022-09-17T12:58:31;101530.06;;;17.08;100.00
62031;BME280;62035;52.094;5.112;2022-09-17T13:01:12;101534.50;;;17.23;100.00
62031;BME280;62035;52.094;5.112;2022-09-17T13:03:49;101536.97;;;17.41;100.00
62031;BME280;62035;52.094;5.112;2022-09-17T13:09:57;101522.75;;;18.01;94.85
62031;BME280;62035;52.094;5.112;2022-09-17T13:12:38;101532.13;;;18.28;92.41
62031;BME280;62035;52.094;5.112;2022-09-17T13:15:40;101527.94;;;17.88;96.61
62031;BME280;62035;52.094;5.112;2022-09-17T13:18:22;101531.09;;;17.91;96.95
62031;BME280;62035;52.094;5.112;2022-09-17T13:20:59;101525.78;;;18.21;98.34
62031;BME280;62035;52.094;5.112;2022-09-17T13:23:37;101515.19;;;18.19;92.26
62031;BME280;62035;52.094;5.112;2022-09-17T13:26:09;101528.69;;;18.34;79.64
62031;BME280;62035;52.094;5.112;2022-09-17T13:28:44;101530.09;;;18.30;76.03